Time;durP1;ratioP1;P1;durP2;ratioP2;P2;SDS_P1;SDS_P2;PMS_P1;PMS_P2;Temp;Humidity;BMP_temperature;BMP_pressure;BME280_temperature;BME280_humidity;BME280_pressure;Samples;Min_cycle;Max_cycle;Signal;HPM_P1;HPM_P2
2021/10/16 00:00:34;;;;;;;7.38;4.80;;;;;;;7.71;77.83;98742.03;5091753;28;20066;-75
2021/10/16 00:02:59;;;;;;;7.30;4.50;;;;;;;7.73;78.00;98739.06;5092653;28;20095;-75
2021/10/16 00:05:25;;;;;;;5.57;3.35;;;;;;;7.74;78.26;98741.50;5094957;28;20027;-74
2021/10/16 00:07:50;;;;;;;5.93;3.88;;;;;;;7.70;77.91;98745.06;5092829;28;20033;-75
2021/10/16 00:10:15;;;;;;;8.00;3.95;;;;;;;7.71;77.81;98747.50;5095916;28;20087;-75
2021/10/16 00:12:41;;;;;;;4.95;3.55;;;;;;;7.68;77.54;98745.31;5090266;28;20024;-75
2021/10/16 00:15:07;;;;;;;6.68;3.85;;;;;;;7.68;77.61;98749.97;5092851;28;20028;-75
2021/10/16 00:17:32;;;;;;;5.72;3.30;;;;;;;7.64;78.39;98755.13;5091128;28;20028;-75
2021/10/16 00:19:58;;;;;;;5.60;3.83;;;;;;;7.63;77.44;98750.75;5092425;28;20020;-76
2021/10/16 00:22:24;;;;;;;6.97;3.67;;;;;;;7.59;77.56;98752.38;5091290;28;20055;-75
2021/10/16 00:24:50;;;;;;;5.80;3.90;;;;;;;7.55;78.00;98752.13;5072322;28;20392;-75
2021/10/16 00:27:16;;;;;;;5.10;3.20;;;;;;;7.54;78.53;98755.13;5087327;28;20048;-75
2021/10/16 00:29:43;;;;;;;4.20;2.90;;;;;;;7.53;78.71;98757.03;5088851;28;20487;-75
2021/10/16 00:32:08;;;;;;;5.53;3.03;;;;;;;7.51;78.00;98755.66;5092376;28;20511;-76
2021/10/16 00:34:35;;;;;;;6.05;3.08;;;;;;;7.50;78.08;98745.84;5090764;28;20027;-76
2021/10/16 00:37:00;;;;;;;6.68;3.80;;;;;;;7.50;78.24;98757.56;5089378;28;20060;-75
2021/10/16 00:39:26;;;;;;;7.28;3.40;;;;;;;7.54;77.89;98749.66;5092018;28;20498;-75
2021/10/16 00:41:51;;;;;;;5.78;3.42;;;;;;;7.55;77.91;98759.47;5094395;28;20061;-74
2021/10/16 00:44:22;;;;;;;6.93;3.90;;;;;;;7.57;77.49;98760.84;5092662;28;20484;-75
2021/10/16 00:46:49;;;;;;;6.75;4.03;;;;;;;7.57;77.92;98760.84;5087224;28;20104;-75
2021/10/16 00:49:15;;;;;;;9.75;5.70;;;;;;;7.59;77.29;98758.69;5088551;28;20024;-75
2021/10/16 00:51:42;;;;;;;8.88;4.60;;;;;;;7.65;78.20;98758.69;5084713;28;20017;-75
2021/10/16 00:54:08;;;;;;;11.02;4.60;;;;;;;7.63;78.05;98755.41;5091000;28;20115;-75
2021/10/16 00:56:35;;;;;;;7.75;4.10;;;;;;;7.62;78.05;98761.97;5085663;28;20024;-75
2021/10/16 00:59:02;;;;;;;6.97;4.45;;;;;;;7.60;76.98;98763.06;5085643;28;20039;-74
2021/10/16 01:01:29;;;;;;;8.05;4.40;;;;;;;7.57;77.39;98760.03;5083847;28;20028;-74
2021/10/16 01:03:55;;;;;;;7.10;4.40;;;;;;;7.56;77.46;98763.84;5088352;28;20020;-75
2021/10/16 01:06:20;;;;;;;6.15;3.55;;;;;;;7.51;77.94;98764.66;5084810;28;20020;-74
2021/10/16 01:08:46;;;;;;;6.68;4.40;;;;;;;7.50;77.60;98765.75;5095508;28;20028;-74
2021/10/16 01:11:11;;;;;;;6.70;4.10;;;;;;;7.54;77.48;98771.50;5093760;28;20031;-74
2021/10/16 01:13:37;;;;;;;7.43;4.22;;;;;;;7.54;77.54;98771.50;5095456;28;20028;-75
2021/10/16 01:16:03;;;;;;;8.23;4.10;;;;;;;7.50;77.23;98770.41;5095097;28;20482;-74
2021/10/16 01:18:28;;;;;;;7.47;4.03;;;;;;;7.50;77.13;98768.47;5090307;28;20020;-75
2021/10/16 01:21:05;;;;;;;5.00;3.40;;;;;;;7.44;77.17;98775.00;5091972;28;20032;-74
2021/10/16 01:23:33;;;;;;;6.65;4.50;;;;;;;7.41;77.67;98759.16;5092856;28;20094;-74
2021/10/16 01:26:00;;;;;;;7.20;3.53;;;;;;;7.36;77.00;98770.88;5090381;28;20055;-74
2021/10/16 01:28:27;;;;;;;7.88;4.20;;;;;;;7.30;76.97;98772.78;5092877;28;20032;-74
2021/10/16 01:30:53;;;;;;;8.70;4.75;;;;;;;7.33;77.10;98774.16;5091057;28;20020;-74
2021/10/16 01:33:19;;;;;;;8.38;4.80;;;;;;;7.34;76.94;98770.34;5092309;28;20431;-75
2021/10/16 01:36:04;;;;;;;6.68;4.35;;;;;;;7.38;76.95;98774.16;5101089;28;20027;-74
2021/10/16 01:38:31;;;;;;;10.23;4.15;;;;;;;7.38;77.06;98768.72;5113359;28;20177;-74
2021/10/16 01:40:57;;;;;;;8.57;4.07;;;;;;;7.40;77.22;98772.00;5100994;28;20028;-75
2021/10/16 01:43:23;;;;;;;8.18;4.28;;;;;;;7.44;76.95;98775.00;5092168;28;20493;-74
2021/10/16 01:45:52;;;;;;;7.72;4.75;;;;;;;7.45;76.63;98773.91;5087933;28;20214;-74
2021/10/16 01:48:25;;;;;;;8.00;4.03;;;;;;;7.44;76.96;98770.38;5094650;28;20078;-75
2021/10/16 01:50:53;;;;;;;8.13;5.05;;;;;;;7.44;76.77;98772.28;5112712;28;20098;-75
2021/10/16 01:53:19;;;;;;;9.25;4.70;;;;;;;7.41;76.73;98764.63;5112236;28;20031;-75
2021/10/16 01:55:45;;;;;;;9.38;4.97;;;;;;;7.42;76.91;98775.28;5113461;28;20034;-75
2021/10/16 01:58:12;;;;;;;9.32;5.68;;;;;;;7.40;76.70;98763.81;5112951;28;20399;-75
2021/10/16 02:00:39;;;;;;;6.70;4.93;;;;;;;7.37;76.70;98774.44;5112909;28;20410;-75
2021/10/16 02:03:09;;;;;;;9.32;4.30;;;;;;;7.33;76.90;98765.97;5112034;28;20030;-75
2021/10/16 02:05:35;;;;;;;6.90;4.07;;;;;;;7.32;76.76;98774.44;5112601;28;20104;-75
2021/10/16 02:08:01;;;;;;;8.27;4.45;;;;;;;7.30;76.18;98774.69;5112315;28;20027;-75
2021/10/16 02:10:26;;;;;;;6.95;3.85;;;;;;;7.32;76.89;98779.88;5112891;28;20031;-75
2021/10/16 02:12:52;;;;;;;7.72;4.22;;;;;;;7.30;76.36;98778.25;5112002;28;20106;-75
2021/10/16 02:15:17;;;;;;;10.00;4.95;;;;;;;7.33;76.91;98781.53;5092488;28;20069;-75
2021/10/16 02:17:43;;;;;;;7.13;4.80;;;;;;;7.38;76.38;98779.63;5092025;28;20036;-75
2021/10/16 02:20:09;;;;;;;8.38;5.35;;;;;;;7.39;76.79;98784.00;5092181;28;20027;-75
2021/10/16 02:22:34;;;;;;;9.80;5.88;;;;;;;7.41;76.19;98778.25;5091446;28;20181;-75
2021/10/16 02:25:00;;;;;;;9.88;6.00;;;;;;;7.39;76.69;98784.00;5091855;28;20049;-75
2021/10/16 02:27:25;;;;;;;15.00;8.10;;;;;;;7.43;76.38;98789.72;5091888;28;20028;-75
2021/10/16 02:29:50;;;;;;;14.57;8.38;;;;;;;7.47;76.75;98790.84;5091881;28;20027;-75
2021/10/16 02:32:16;;;;;;;17.45;8.82;;;;;;;7.51;76.37;98788.41;5093428;28;20111;-75
2021/10/16 02:34:41;;;;;;;17.52;8.45;;;;;;;7.51;76.64;98789.22;5107286;28;20028;-75
2021/10/16 02:37:07;;;;;;;14.10;7.93;;;;;;;7.48;76.30;98783.50;5112452;28;20131;-75
2021/10/16 02:39:33;;;;;;;17.10;8.25;;;;;;;7.48;76.38;98792.47;5112161;28;20023;-75
2021/10/16 02:41:59;;;;;;;10.07;6.30;;;;;;;7.45;76.63;98791.13;5112061;28;20108;-75
2021/10/16 02:44:25;;;;;;;14.18;6.75;;;;;;;7.36;76.36;98792.72;5111976;28;20019;-76
2021/10/16 02:46:51;;;;;;;12.82;6.57;;;;;;;7.33;76.55;98804.16;5112360;28;20027;-75
2021/10/16 02:49:17;;;;;;;11.30;6.85;;;;;;;7.32;76.32;98802.53;5093505;28;20024;-74
2021/10/16 02:51:42;;;;;;;13.77;7.03;;;;;;;7.32;76.69;98807.19;5111404;28;20031;-74
2021/10/16 02:54:08;;;;;;;10.05;5.70;;;;;;;7.30;77.08;98799.22;5083853;28;20072;-74
2021/10/16 02:56:33;;;;;;;16.15;7.03;;;;;;;7.30;76.46;98807.44;5084412;28;20545;-74
2021/10/16 02:58:58;;;;;;;13.05;7.68;;;;;;;7.26;76.72;98801.69;5083477;28;20020;-75
2021/10/16 03:01:24;;;;;;;10.90;6.78;;;;;;;7.28;76.72;98804.13;5084546;28;20107;-74
2021/10/16 03:03:49;;;;;;;10.57;5.65;;;;;;;7.31;76.62;98806.34;5082553;28;20024;-74
2021/10/16 03:06:15;;;;;;;11.00;7.47;;;;;;;7.33;76.95;98811.53;5091478;28;20068;-75
2021/10/16 03:08:40;;;;;;;13.68;7.32;;;;;;;7.33;76.68;98808.81;5112189;28;20016;-75
2021/10/16 03:11:06;;;;;;;12.88;6.65;;;;;;;7.36;76.54;98811.81;5112140;28;20051;-75
2021/10/16 03:13:33;;;;;;;12.82;6.97;;;;;;;7.40;76.86;98812.09;5111223;28;20491;-75
2021/10/16 03:15:59;;;;;;;11.68;6.38;;;;;;;7.42;76.25;98812.66;5111826;28;20631;-75
2021/10/16 03:18:24;;;;;;;12.90;6.43;;;;;;;7.43;76.07;98808.84;5111932;28;20027;-74
2021/10/16 03:20:50;;;;;;;11.85;7.50;;;;;;;7.43;76.69;98820.59;5105845;28;20035;-75
2021/10/16 03:23:15;;;;;;;8.38;5.72;;;;;;;7.48;76.59;98821.69;5090960;28;20472;-74
2021/10/16 03:25:40;;;;;;;12.52;6.13;;;;;;;7.47;76.48;98817.31;5091425;28;20404;-75
2021/10/16 03:28:06;;;;;;;10.73;6.45;;;;;;;7.44;76.64;98822.22;5091281;28;20036;-75
2021/10/16 03:30:31;;;;;;;11.48;6.20;;;;;;;7.48;76.39;98824.44;5091621;28;20024;-74
2021/10/16 03:32:57;;;;;;;15.48;6.97;;;;;;;7.48;76.25;98821.69;5090894;28;20019;-75
2021/10/16 03:35:22;;;;;;;11.98;6.95;;;;;;;7.47;76.61;98828.25;5099922;28;20050;-75
2021/10/16 03:37:48;;;;;;;13.18;6.20;;;;;;;7.50;76.58;98814.06;5112046;28;20020;-75
2021/10/16 03:40:13;;;;;;;10.10;5.97;;;;;;;7.55;76.53;98824.97;5105988;28;20020;-75
2021/10/16 03:42:39;;;;;;;12.52;7.80;;;;;;;7.58;76.13;98827.19;5072540;28;20036;-75
2021/10/16 03:45:04;;;;;;;12.68;6.28;;;;;;;7.60;76.60;98833.19;5091520;28;20020;-75
2021/10/16 03:47:30;;;;;;;10.45;6.68;;;;;;;7.64;76.15;98828.84;5101433;28;20031;-75
2021/10/16 03:49:55;;;;;;;11.73;6.85;;;;;;;7.69;76.04;98825.31;5079350;28;20039;-75
2021/10/16 03:52:20;;;;;;;12.48;8.10;;;;;;;7.69;75.94;98833.50;5090917;28;20029;-74
2021/10/16 03:54:46;;;;;;;12.25;6.75;;;;;;;7.68;75.90;98827.22;5091492;28;20039;-75
2021/10/16 03:57:11;;;;;;;14.18;7.97;;;;;;;7.66;76.06;98829.38;5091144;28;20468;-75
2021/10/16 03:59:41;;;;;;;12.68;7.03;;;;;;;7.68;76.26;98824.47;5091072;28;20028;-74
2021/10/16 04:02:06;;;;;;;14.27;6.90;;;;;;;7.71;76.12;98823.16;5091038;28;20060;-75
2021/10/16 04:04:32;;;;;;;14.45;6.20;;;;;;;7.72;75.81;98825.59;5075549;28;20060;-74
2021/10/16 04:06:57;;;;;;;14.43;6.65;;;;;;;7.70;75.95;98824.22;5095367;28;20497;-75
2021/10/16 04:09:23;;;;;;;12.23;5.38;;;;;;;7.71;76.15;98823.16;5095005;28;20028;-74
2021/10/16 04:11:48;;;;;;;10.32;5.60;;;;;;;7.64;75.53;98823.38;5094650;28;20115;-75
2021/10/16 04:14:13;;;;;;;9.52;5.57;;;;;;;7.60;75.76;98828.56;5093052;28;20560;-75
2021/10/16 04:16:39;;;;;;;11.98;6.50;;;;;;;7.57;75.64;98823.63;5094972;28;20028;-74
2021/10/16 04:19:04;;;;;;;12.18;6.55;;;;;;;7.57;75.53;98831.00;5094846;28;20651;-75
2021/10/16 04:21:30;;;;;;;13.43;6.38;;;;;;;7.56;75.83;98829.34;5112875;28;20388;-75
2021/10/16 04:23:55;;;;;;;10.52;5.15;;;;;;;7.57;75.78;98831.81;5114708;28;20095;-75
2021/10/16 04:26:20;;;;;;;11.48;6.38;;;;;;;7.56;76.08;98832.91;5114865;28;20438;-75
2021/10/16 04:28:46;;;;;;;11.07;6.22;;;;;;;7.62;75.57;98839.19;5111216;28;20036;-75
2021/10/16 04:31:12;;;;;;;12.55;5.55;;;;;;;7.64;75.81;98833.50;5114231;28;20023;-75
2021/10/16 04:33:39;;;;;;;10.75;5.63;;;;;;;7.64;75.38;98830.75;5114619;28;20106;-75
2021/10/16 04:36:04;;;;;;;11.30;6.28;;;;;;;7.61;75.68;98832.09;5101890;28;20051;-74
2021/10/16 04:38:29;;;;;;;11.70;6.05;;;;;;;7.60;75.66;98833.19;5094440;28;20064;-74
2021/10/16 04:40:55;;;;;;;11.30;6.72;;;;;;;7.58;75.38;98830.75;5107758;28;20027;-74
2021/10/16 04:43:21;;;;;;;12.02;6.90;;;;;;;7.60;75.14;98833.19;5112657;28;20024;-74
2021/10/16 04:45:47;;;;;;;11.32;6.65;;;;;;;7.59;75.24;98829.66;5114526;28;20039;-75
2021/10/16 04:48:12;;;;;;;15.60;7.03;;;;;;;7.59;75.44;98835.13;5114702;28;20479;-75
2021/10/16 04:50:38;;;;;;;14.70;8.13;;;;;;;7.63;75.13;98832.66;5114882;28;20030;-75
2021/10/16 04:53:03;;;;;;;33.55;17.05;;;;;;;7.63;75.34;98831.84;5114292;28;20085;-75
2021/10/16 04:55:29;;;;;;;36.10;20.10;;;;;;;7.67;75.42;98844.69;5109489;28;20060;-75
2021/10/16 04:57:54;;;;;;;29.17;14.45;;;;;;;7.69;75.52;98847.97;5094288;28;20031;-74
2021/10/16 05:00:20;;;;;;;30.83;15.65;;;;;;;7.71;75.18;98847.72;5075941;28;20028;-75
2021/10/16 05:02:45;;;;;;;14.95;8.00;;;;;;;7.72;74.97;98854.81;5093895;28;20051;-75
2021/10/16 05:05:11;;;;;;;13.80;6.95;;;;;;;7.70;75.45;98854.25;5094389;28;20499;-74
2021/10/16 05:07:37;;;;;;;14.48;8.75;;;;;;;7.66;75.26;98853.97;5093810;28;20046;-74
2021/10/16 05:10:03;;;;;;;18.70;9.63;;;;;;;7.63;75.17;98851.75;5093865;28;20055;-73
2021/10/16 05:12:29;;;;;;;26.77;13.13;;;;;;;7.59;74.96;98856.13;5093112;28;20024;-74
2021/10/16 05:14:54;;;;;;;44.80;19.10;;;;;;;7.57;75.19;98859.13;5093033;28;20042;-74
2021/10/16 05:17:19;;;;;;;55.78;27.33;;;;;;;7.62;75.60;98854.78;5093656;28;20028;-74
2021/10/16 05:19:45;;;;;;;41.47;18.05;;;;;;;7.65;75.12;98863.25;5093683;28;20059;-74
2021/10/16 05:22:10;;;;;;;51.95;21.65;;;;;;;7.63;75.34;98868.16;5093678;28;20464;-74
2021/10/16 05:24:36;;;;;;;105.80;33.92;;;;;;;7.63;74.88;98856.41;5093127;28;20038;-75
2021/10/16 05:27:01;;;;;;;152.52;40.28;;;;;;;7.65;75.05;98873.34;5093062;28;20071;-74
2021/10/16 05:29:27;;;;;;;96.72;27.95;;;;;;;7.65;75.39;98865.97;5075101;28;20059;-74
2021/10/16 05:31:52;;;;;;;128.15;35.42;;;;;;;7.65;75.41;98878.81;5093098;28;20020;-74
2021/10/16 05:34:18;;;;;;;98.45;28.27;;;;;;;7.69;75.07;98879.94;5092873;28;20028;-74
2021/10/16 05:36:43;;;;;;;104.35;29.95;;;;;;;7.68;75.24;98875.56;5086703;28;20102;-74
2021/10/16 05:39:08;;;;;;;51.33;16.77;;;;;;;7.69;75.33;98883.47;5113658;28;20020;-74
2021/10/16 05:41:34;;;;;;;24.35;9.45;;;;;;;7.71;74.98;98889.47;5099129;28;20026;-74
2021/10/16 05:43:59;;;;;;;13.10;7.40;;;;;;;7.76;74.86;98885.94;5092798;28;20052;-74
2021/10/16 05:46:25;;;;;;;16.73;7.50;;;;;;;7.79;74.97;98893.59;5074546;28;20030;-74
2021/10/16 05:48:50;;;;;;;13.68;7.53;;;;;;;7.87;75.41;98892.28;5092871;28;20024;-74
2021/10/16 05:51:15;;;;;;;14.25;7.88;;;;;;;7.90;75.52;98895.28;5092568;28;20058;-74
2021/10/16 05:53:41;;;;;;;13.70;7.68;;;;;;;7.89;74.91;98899.09;5092172;28;20069;-74
2021/10/16 05:56:07;;;;;;;18.33;8.23;;;;;;;7.88;74.87;98902.91;5094222;28;20059;-75
2021/10/16 05:58:34;;;;;;;16.10;8.40;;;;;;;7.93;74.88;98904.88;5113050;28;20106;-75
2021/10/16 06:01:02;;;;;;;16.67;9.05;;;;;;;7.93;75.04;98907.59;5113106;28;20020;-74
2021/10/16 06:03:27;;;;;;;16.13;8.82;;;;;;;7.96;74.71;98908.97;5111903;28;20123;-74
2021/10/16 06:05:57;;;;;;;16.08;9.00;;;;;;;7.98;74.72;98912.25;5112797;28;20052;-74
2021/10/16 06:08:22;;;;;;;;;;;;;;;7.99;74.61;98913.88;5113639;28;20357;-75
2021/10/16 06:10:47;;;;;;;19.50;10.05;;;;;;;7.94;74.60;98913.88;5112731;28;19912;-75
2021/10/16 06:13:13;;;;;;;18.17;9.70;;;;;;;7.93;74.67;98902.13;5107268;28;20524;-74
2021/10/16 06:15:38;;;;;;;17.10;9.80;;;;;;;7.95;75.15;98916.31;5097000;28;20020;-74
2021/10/16 06:18:09;;;;;;;16.17;8.18;;;;;;;7.99;75.17;98914.69;5093791;28;20026;-75
2021/10/16 06:20:35;;;;;;;14.95;8.25;;;;;;;8.03;75.04;98921.28;5098730;28;20020;-75
2021/10/16 06:23:00;;;;;;;20.35;9.40;;;;;;;8.08;75.29;98916.91;5094634;28;20020;-75
2021/10/16 06:25:26;;;;;;;17.42;9.43;;;;;;;8.15;74.73;98920.22;5099351;28;20103;-75
2021/10/16 06:27:51;;;;;;;16.42;8.68;;;;;;;8.20;75.05;98920.25;5111251;28;20038;-73
2021/10/16 06:30:17;;;;;;;17.95;8.57;;;;;;;8.24;75.12;98928.72;5112234;28;20035;-77
2021/10/16 06:32:42;;;;;;;19.20;9.63;;;;;;;8.28;74.91;98941.59;5109642;28;20468;-76
2021/10/16 06:35:08;;;;;;;24.77;11.05;;;;;;;8.32;74.72;98937.22;5092519;28;20055;-76
2021/10/16 06:37:33;;;;;;;25.67;12.60;;;;;;;8.33;74.63;98927.94;5111847;28;20321;-76
2021/10/16 06:39:59;;;;;;;31.15;13.55;;;;;;;8.26;74.01;98935.56;5112011;28;20030;-77
2021/10/16 06:42:24;;;;;;;36.40;13.77;;;;;;;8.24;74.54;98945.94;5112063;28;20036;-77
2021/10/16 06:44:50;;;;;;;24.60;10.35;;;;;;;8.17;74.48;98945.38;5111894;28;20019;-78
2021/10/16 06:47:15;;;;;;;21.20;10.02;;;;;;;8.13;74.26;98952.44;5107601;28;20028;-78
2021/10/16 06:49:40;;;;;;;28.40;12.40;;;;;;;8.12;74.46;98948.06;5111666;28;21370;-77
2021/10/16 06:52:06;;;;;;;27.83;12.10;;;;;;;8.06;74.12;98952.72;5111771;28;20015;-78
2021/10/16 06:54:31;;;;;;;33.28;15.90;;;;;;;8.00;73.92;98953.78;5106898;28;20023;-78
2021/10/16 06:56:57;;;;;;;21.13;9.77;;;;;;;7.99;74.31;98952.13;5091718;28;20539;-78
2021/10/16 06:59:22;;;;;;;23.83;11.93;;;;;;;8.02;74.50;98962.53;5091710;28;20024;-78
2021/10/16 07:01:47;;;;;;;37.67;16.35;;;;;;;8.09;74.47;98954.06;5091031;28;20484;-78
2021/10/16 07:04:13;;;;;;;20.42;10.13;;;;;;;8.10;73.90;98964.75;5087909;28;20381;-78
2021/10/16 07:06:39;;;;;;;22.83;9.45;;;;;;;8.13;74.17;98960.66;5088705;28;20032;-79
2021/10/16 07:09:05;;;;;;;20.52;9.85;;;;;;;8.15;74.27;98963.94;5087428;28;20027;-78
2021/10/16 07:11:30;;;;;;;20.02;9.77;;;;;;;8.24;74.24;98967.81;5088158;28;20020;-79
2021/10/16 07:13:56;;;;;;;21.30;10.25;;;;;;;8.33;74.56;98965.34;5102286;28;20016;-78
2021/10/16 07:16:21;;;;;;;26.83;10.40;;;;;;;8.43;74.41;98970.03;5071326;28;20039;-78
2021/10/16 07:18:49;;;;;;;43.38;18.80;;;;;;;8.51;73.99;98966.81;5086690;28;20141;-74
2021/10/16 07:21:14;;;;;;;29.00;13.80;;;;;;;8.60;74.42;98961.63;5086637;28;20028;-72
2021/10/16 07:23:40;;;;;;;25.25;9.50;;;;;;;8.57;73.36;98971.19;5099249;28;20046;-72
2021/10/16 07:26:05;;;;;;;22.80;9.65;;;;;;;8.55;73.20;98975.31;5095228;28;20044;-72
2021/10/16 07:28:31;;;;;;;19.52;7.78;;;;;;;8.53;73.06;98981.03;5099108;28;20467;-72
2021/10/16 07:30:56;;;;;;;15.27;7.45;;;;;;;8.46;72.99;98977.69;5070793;28;20119;-72
2021/10/16 07:33:22;;;;;;;16.60;8.13;;;;;;;8.41;72.50;98980.41;5098341;28;20386;-70
2021/10/16 07:35:48;;;;;;;15.43;5.97;;;;;;;8.40;72.47;98976.03;5100177;28;20028;-71
2021/10/16 07:38:14;;;;;;;12.68;6.38;;;;;;;8.43;73.05;98972.75;5109980;28;20027;-72
2021/10/16 07:40:41;;;;;;;20.42;7.13;;;;;;;8.45;72.70;98982.34;5110034;28;20417;-70
2021/10/16 07:43:07;;;;;;;11.90;5.55;;;;;;;8.45;72.80;98987.81;5103990;28;20019;-71
2021/10/16 07:45:36;;;;;;;18.27;6.85;;;;;;;8.41;72.08;98994.91;5103464;28;20027;-73
2021/10/16 07:48:01;;;;;;;16.02;6.82;;;;;;;8.35;72.23;98988.59;5075103;28;20028;-72
2021/10/16 07:50:26;;;;;;;14.38;7.20;;;;;;;8.35;71.91;98990.50;5073080;28;20032;-72
2021/10/16 07:52:52;;;;;;;14.75;6.68;;;;;;;8.29;72.33;98988.84;5086492;28;20060;-73
2021/10/16 07:55:17;;;;;;;9.77;5.15;;;;;;;8.26;72.11;98990.22;5070326;28;20027;-71
2021/10/16 07:57:43;;;;;;;12.55;5.90;;;;;;;8.21;72.39;98998.38;5090408;28;20043;-73
2021/10/16 08:00:08;;;;;;;13.23;6.22;;;;;;;8.17;72.47;98998.09;5086893;28;20035;-72
2021/10/16 08:02:35;;;;;;;12.35;6.70;;;;;;;8.16;71.91;99004.63;5089424;28;20376;-73
2021/10/16 08:05:02;;;;;;;14.25;6.43;;;;;;;8.14;72.38;99006.00;5090623;28;20073;-73
2021/10/16 08:07:28;;;;;;;16.83;8.93;;;;;;;8.11;71.51;99010.09;5087392;28;20047;-73
2021/10/16 08:09:55;;;;;;;19.50;7.32;;;;;;;8.08;72.17;99015.25;5091069;28;20044;-72
2021/10/16 08:12:21;;;;;;;23.92;8.93;;;;;;;8.02;71.87;99004.31;5089863;28;20060;-72
2021/10/16 08:14:46;;;;;;;50.95;17.23;;;;;;;8.08;72.53;99018.00;5081917;28;20035;-72
2021/10/16 08:17:12;;;;;;;37.20;11.40;;;;;;;8.16;72.42;99010.09;5087406;28;20024;-72
2021/10/16 08:19:37;;;;;;;21.27;8.48;;;;;;;8.33;72.79;99015.38;5087000;28;20499;-72
2021/10/16 08:22:03;;;;;;;41.25;15.45;;;;;;;8.47;72.58;99014.88;5088646;28;20095;-72
2021/10/16 08:24:29;;;;;;;28.42;11.05;;;;;;;8.60;72.22;99016.28;5090343;28;20073;-73
2021/10/16 08:26:54;;;;;;;18.20;8.65;;;;;;;8.70;72.17;99015.53;5090302;28;20504;-73
2021/10/16 08:29:20;;;;;;;10.45;4.50;;;;;;;8.70;72.34;99021.00;5090245;28;20081;-72
2021/10/16 08:31:45;;;;;;;14.57;6.60;;;;;;;8.68;71.35;99018.50;5089603;28;20388;-72
2021/10/16 08:34:10;;;;;;;10.88;5.47;;;;;;;8.72;71.29;99021.53;5071856;28;20298;-73
2021/10/16 08:36:38;;;;;;;13.65;6.38;;;;;;;8.75;71.14;99021.00;5106701;28;20437;-72
2021/10/16 08:39:04;;;;;;;13.35;4.80;;;;;;;8.83;71.54;99025.91;5110945;28;20019;-73
2021/10/16 08:41:30;;;;;;;9.82;4.57;;;;;;;8.89;71.67;99024.03;5110420;28;20051;-74
2021/10/16 08:43:55;;;;;;;8.63;3.58;;;;;;;8.93;71.51;99025.94;5089109;28;20055;-74
2021/10/16 08:46:23;;;;;;;9.10;4.40;;;;;;;8.94;70.69;99024.84;5090274;28;20387;-73
2021/10/16 08:48:48;;;;;;;14.07;4.13;;;;;;;9.03;70.79;99027.88;5090447;28;20104;-72
2021/10/16 08:51:13;;;;;;;10.43;3.42;;;;;;;9.06;70.83;99032.00;5092546;28;20448;-75
2021/10/16 08:53:39;;;;;;;9.48;4.15;;;;;;;9.11;70.96;99025.69;5114059;28;20031;-73
2021/10/16 08:56:05;;;;;;;8.23;4.03;;;;;;;9.18;69.87;99038.00;5096344;28;20024;-74
2021/10/16 08:58:32;;;;;;;10.10;3.50;;;;;;;9.20;69.92;99035.81;5094074;28;20394;-73
2021/10/16 09:01:00;;;;;;;12.80;4.88;;;;;;;9.28;69.73;99039.09;5076145;28;20039;-73
2021/10/16 09:03:31;;;;;;;8.18;4.53;;;;;;;9.35;70.10;99039.66;5091732;28;20479;-73
2021/10/16 09:06:27;;;;;;;13.63;6.05;;;;;;;9.43;70.36;99039.13;5099508;28;20450;-73
2021/10/16 09:08:55;;;;;;;9.15;4.43;;;;;;;9.58;70.36;99042.94;5102771;28;20115;-72
2021/10/16 09:11:35;;;;;;;11.10;3.88;;;;;;;9.62;69.28;99042.13;5093142;28;20028;-74
2021/10/16 09:14:10;;;;;;;12.27;5.63;;;;;;;9.65;69.55;99047.03;5093054;28;20055;-75
2021/10/16 09:16:40;;;;;;;10.77;5.05;;;;;;;9.71;69.35;99047.03;5093240;28;20028;-74
2021/10/16 09:19:20;;;;;;;6.72;2.75;;;;;;;9.69;68.60;99052.78;5093498;28;20028;-74
2021/10/16 09:22:00;;;;;;;9.45;2.72;;;;;;;9.65;68.39;99049.78;5093308;28;20430;-74
2021/10/16 09:24:27;;;;;;;;;;;;;;;9.63;68.56;99051.13;5105087;28;20055;-74
2021/10/16 09:26:55;;;;;;;13.43;4.15;;;;;;;9.70;69.56;99046.19;5110532;28;19924;-73
2021/10/16 09:29:22;;;;;;;14.13;6.00;;;;;;;9.85;69.26;99053.56;5093038;28;20085;-74
2021/10/16 09:31:53;;;;;;;11.80;4.60;;;;;;;9.94;68.38;99053.84;5092125;28;20119;-73
2021/10/16 09:34:24;;;;;;;15.15;4.47;;;;;;;9.88;66.74;99053.03;5073608;28;20032;-73
2021/10/16 09:36:49;;;;;;;12.95;3.97;;;;;;;9.88;67.15;99063.19;5103973;28;20539;-76
2021/10/16 09:39:17;;;;;;;6.53;2.90;;;;;;;9.85;66.51;99048.09;5107400;28;20173;-74
2021/10/16 09:41:42;;;;;;;6.57;2.75;;;;;;;9.85;66.42;99055.50;5101671;28;20110;-76
2021/10/16 09:44:24;;;;;;;6.30;2.97;;;;;;;9.89;67.06;99057.41;5108173;28;20116;-76
2021/10/16 09:47:18;;;;;;;8.40;3.03;;;;;;;10.08;65.87;99051.34;5092726;28;20490;-75
2021/10/16 09:49:57;;;;;;;8.60;3.65;;;;;;;10.24;66.69;99047.44;5089697;28;20063;-78
2021/10/16 09:52:32;;;;;;;8.00;3.10;;;;;;;10.37;67.32;99053.44;5106649;28;20032;-72
2021/10/16 09:54:57;;;;;;;11.68;4.70;;;;;;;10.40;66.63;99059.19;5113068;28;20030;-70
2021/10/16 09:57:25;;;;;;;10.77;4.50;;;;;;;10.46;67.35;99049.03;5106867;28;20020;-72
2021/10/16 09:59:52;;;;;;;16.63;7.38;;;;;;;10.60;65.44;99053.94;5091335;28;20476;-71
2021/10/16 10:02:17;;;;;;;11.68;4.10;;;;;;;10.68;65.26;99050.56;5090854;28;20019;-73
2021/10/16 10:04:46;;;;;;;13.95;3.90;;;;;;;10.62;64.71;99055.28;5112157;28;20048;-72
2021/10/16 10:07:12;;;;;;;20.60;9.23;;;;;;;10.49;64.28;99055.88;5099581;28;20095;-72
2021/10/16 10:09:41;;;;;;;16.80;7.22;;;;;;;10.40;64.87;99061.94;5111436;28;20023;-72
2021/10/16 10:12:09;;;;;;;9.35;3.78;;;;;;;10.33;64.44;99057.84;5096776;28;20020;-76
2021/10/16 10:14:38;;;;;;;8.88;3.45;;;;;;;10.19;64.74;99052.13;5102897;28;20016;-77
2021/10/16 10:17:05;;;;;;;12.80;4.40;;;;;;;10.11;64.70;99050.78;5105818;28;20035;-78
2021/10/16 10:19:39;;;;;;;11.40;4.00;;;;;;;9.98;64.76;99046.72;5104785;28;20047;-78
2021/10/16 10:22:16;;;;;;;12.88;4.50;;;;;;;9.93;64.59;99053.00;5091968;28;20111;-77
2021/10/16 10:24:44;;;;;;;15.18;6.05;;;;;;;9.86;64.38;99055.22;5105944;28;20038;-79
2021/10/16 10:27:11;;;;;;;11.05;4.75;;;;;;;9.87;65.17;99061.53;5094301;28;20721;-78
2021/10/16 10:29:39;;;;;;;10.77;4.20;;;;;;;9.99;65.63;99056.56;5111790;28;20110;-79
2021/10/16 10:32:06;;;;;;;15.20;6.47;;;;;;;10.09;64.94;99053.78;5093520;28;20050;-78
2021/10/16 10:34:59;;;;;;;13.52;5.35;;;;;;;10.18;65.37;99054.06;5111795;28;20031;-78
2021/10/16 10:37:44;;;;;;;11.75;5.70;;;;;;;10.39;66.19;99052.06;5096122;28;20031;-78
2021/10/16 10:40:17;;;;;;;11.50;4.88;;;;;;;10.60;65.29;99042.97;5100109;28;20024;-78
2021/10/16 10:42:44;;;;;;;11.63;4.78;;;;;;;10.69;64.54;99049.47;5090716;28;20349;-83
2021/10/16 10:45:25;;;;;;;12.27;5.15;;;;;;;10.71;63.79;99047.28;5111688;28;20026;-85
2021/10/16 10:47:57;;;;;;;13.63;5.80;;;;;;;10.73;64.34;99031.34;5111747;28;20027;-84
2021/10/16 10:50:41;;;;;;;9.90;4.75;;;;;;;10.79;63.52;99029.41;5112060;28;20384;-87
2021/10/16 10:53:08;;;;;;;26.15;10.18;;;;;;;10.92;64.23;99025.22;5111362;28;20049;-83
2021/10/16 10:56:03;;;;;;;17.13;6.55;;;;;;;11.08;64.02;99020.44;5112047;28;20765;-82
2021/10/16 10:58:56;;;;;;;11.13;4.85;;;;;;;11.11;62.25;99017.91;5076422;28;20040;-81
2021/10/16 11:01:49;;;;;;;11.32;4.40;;;;;;;11.00;60.87;99025.41;5091119;28;20546;-87
2021/10/16 11:04:38;;;;;;;8.38;3.42;;;;;;;10.89;60.49;99028.53;5073880;28;20063;-87
2021/10/16 11:07:11;;;;;;;10.18;4.10;;;;;;;10.75;60.85;99025.59;5106165;28;20027;-88
2021/10/16 11:09:37;;;;;;;15.40;5.07;;;;;;;10.63;61.23;99028.66;5091294;28;20062;-86
2021/10/16 11:12:02;;;;;;;10.80;4.20;;;;;;;10.53;60.62;99015.81;5072192;28;20028;-88
2021/10/16 11:14:40;;;;;;;13.13;4.35;;;;;;;10.45;61.89;99021.88;5071599;28;20050;-86
2021/10/16 11:17:08;;;;;;;11.20;4.10;;;;;;;10.51;62.14;99020.78;5072319;28;20392;-86
2021/10/16 11:19:52;;;;;;;15.80;4.90;;;;;;;10.75;62.86;99014.63;5090445;28;20024;-85
2021/10/16 11:22:19;;;;;;;7.55;3.28;;;;;;;10.93;62.22;99013.13;5090722;28;20035;-86
2021/10/16 11:24:44;;;;;;;7.13;2.92;;;;;;;10.96;61.99;99013.38;5072814;28;20123;-82
2021/10/16 11:27:10;;;;;;;10.15;2.92;;;;;;;11.04;60.47;99008.38;5091010;28;20645;-82
2021/10/16 11:29:38;;;;;;;9.30;3.30;;;;;;;11.07;60.25;99003.13;5090737;28;20447;-83
2021/10/16 11:32:16;;;;;;;29.27;9.43;;;;;;;11.11;61.37;99006.94;5090379;28;20294;-85
2021/10/16 11:35:03;;;;;;;13.52;6.40;;;;;;;11.08;60.61;99001.22;5093523;28;20035;-85